Time;durP1;ratioP1;P1;durP2;ratioP2;P2;SDS_P1;SDS_P2;PMS_P1;PMS_P2;Temp;Humidity;BMP_temperature;BMP_pressure;BME280_temperature;BME280_humidity;BME280_pressure;Samples;Min_cycle;Max_cycle;Signal;HPM_P1;HPM_P2
2021/07/17 00:01:16;;;;;;;2.65;0.63;;;17.00;63.00;;;;;;5100988;28;20031;-64
2021/07/17 00:03:44;;;;;;;2.35;0.45;;;17.00;64.70;;;;;;5081414;28;20149;-53
2021/07/17 00:06:11;;;;;;;2.55;0.50;;;17.00;64.90;;;;;;5099741;28;20077;-56
2021/07/17 00:08:39;;;;;;;1.70;0.30;;;17.00;63.90;;;;;;5097617;28;20032;-56
2021/07/17 00:11:06;;;;;;;0.95;0.25;;;17.10;64.40;;;;;;5100207;28;20115;-58
2021/07/17 00:13:34;;;;;;;0.45;0.20;;;17.10;64.30;;;;;;5098071;28;20062;-58
2021/07/17 00:16:01;;;;;;;1.20;0.47;;;17.00;64.50;;;;;;5101292;28;20031;-56
2021/07/17 00:18:28;;;;;;;0.77;0.32;;;17.10;65.20;;;;;;5098169;28;20059;-59
2021/07/17 00:20:57;;;;;;;0.82;0.30;;;17.10;64.90;;;;;;5098365;28;20110;-57
2021/07/17 00:23:24;;;;;;;0.82;0.30;;;17.20;63.00;;;;;;5088811;28;20059;-53
2021/07/17 00:25:55;;;;;;;0.93;0.38;;;17.30;64.90;;;;;;5088773;28;20028;-60
2021/07/17 00:28:22;;;;;;;0.95;0.30;;;17.40;63.70;;;;;;5088441;28;20132;-57
2021/07/17 00:30:50;;;;;;;1.52;0.40;;;17.50;64.60;;;;;;5090662;28;20073;-57
2021/07/17 00:33:17;;;;;;;1.38;0.30;;;17.60;63.30;;;;;;5071970;28;20808;-56
2021/07/17 00:35:45;;;;;;;0.90;0.20;;;17.70;62.00;;;;;;5084113;28;20059;-54
2021/07/17 00:38:12;;;;;;;5.57;0.40;;;17.80;62.50;;;;;;5083715;28;20081;-57
2021/07/17 00:40:40;;;;;;;0.60;0.35;;;17.90;62.40;;;;;;5083726;28;20482;-54
2021/07/17 00:43:07;;;;;;;0.95;0.22;;;17.90;61.00;;;;;;5083964;28;20093;-59
2021/07/17 00:45:34;;;;;;;5.97;0.77;;;17.90;62.00;;;;;;5083328;28;20058;-57
2021/07/17 00:48:02;;;;;;;1.10;0.30;;;17.90;59.90;;;;;;5065294;28;20462;-56
2021/07/17 00:50:29;;;;;;;0.47;0.32;;;17.90;60.40;;;;;;5104375;28;20066;-54
2021/07/17 00:52:56;;;;;;;5.05;0.30;;;17.90;60.20;;;;;;5103988;28;20024;-54
2021/07/17 00:55:28;;;;;;;0.65;0.40;;;17.90;61.20;;;;;;5104081;28;20371;-55
2021/07/17 00:57:57;;;;;;;2.03;0.20;;;17.90;59.70;;;;;;5104577;28;20039;-60
2021/07/17 01:00:25;;;;;;;0.93;0.30;;;17.90;61.40;;;;;;5106039;28;20019;-58
2021/07/17 01:03:12;;;;;;;3.38;0.40;;;17.90;60.10;;;;;;5107550;28;20102;-55
2021/07/17 01:05:42;;;;;;;2.40;0.70;;;17.80;60.90;;;;;;5107367;28;20031;-56
2021/07/17 01:08:09;;;;;;;2.20;0.30;;;17.70;61.10;;;;;;5088568;28;20024;-59
2021/07/17 01:10:37;;;;;;;1.65;0.28;;;17.80;62.50;;;;;;5108018;28;20039;-56
2021/07/17 01:13:05;;;;;;;0.55;0.30;;;17.80;61.50;;;;;;5089006;28;20554;-56
2021/07/17 01:15:33;;;;;;;6.60;0.30;;;17.90;60.50;;;;;;5106986;28;20032;-52
2021/07/17 01:18:00;;;;;;;0.50;0.20;;;17.90;61.00;;;;;;5107101;28;20118;-58
2021/07/17 01:20:29;;;;;;;3.28;0.20;;;17.90;61.30;;;;;;5108029;28;20055;-56
2021/07/17 01:22:56;;;;;;;0.75;0.40;;;17.90;59.60;;;;;;5089189;28;20419;-58
2021/07/17 01:25:28;;;;;;;0.77;0.40;;;17.90;61.30;;;;;;5106842;28;20027;-53
2021/07/17 01:27:57;;;;;;;9.52;0.50;;;17.90;61.70;;;;;;5106956;28;20051;-55
2021/07/17 01:30:28;;;;;;;9.75;0.60;;;17.90;62.70;;;;;;5106883;28;20047;-53
2021/07/17 01:32:55;;;;;;;1.27;0.40;;;17.90;61.70;;;;;;5106768;28;20081;-58
2021/07/17 01:35:23;;;;;;;1.80;0.47;;;18.00;62.50;;;;;;5107345;28;20480;-57
2021/07/17 01:37:51;;;;;;;3.30;0.30;;;18.00;61.30;;;;;;5106912;28;20537;-53
2021/07/17 01:40:19;;;;;;;4.13;0.40;;;17.90;62.40;;;;;;5107037;28;20072;-52
2021/07/17 01:42:48;;;;;;;0.98;0.40;;;18.00;61.10;;;;;;5106758;28;20039;-58
2021/07/17 01:45:38;;;;;;;1.83;0.38;;;18.10;60.90;;;;;;5106394;28;20024;-56
2021/07/17 01:48:10;;;;;;;1.40;0.50;;;18.20;60.70;;;;;;5106898;28;20031;-58
2021/07/17 01:50:39;;;;;;;1.98;0.38;;;18.20;60.20;;;;;;5088417;28;20340;-56
2021/07/17 01:53:08;;;;;;;1.08;0.20;;;18.30;59.90;;;;;;5088188;28;20035;-58
2021/07/17 01:55:36;;;;;;;4.63;0.30;;;18.40;59.80;;;;;;5106029;28;20216;-59
2021/07/17 01:58:04;;;;;;;1.10;0.40;;;18.50;60.40;;;;;;5106269;28;20028;-56
2021/07/17 02:00:31;;;;;;;0.52;0.20;;;18.60;58.60;;;;;;5087380;28;20028;-57
2021/07/17 02:02:59;;;;;;;0.85;0.50;;;18.60;57.80;;;;;;5106132;28;20027;-56
2021/07/17 02:05:27;;;;;;;1.10;0.40;;;18.70;57.30;;;;;;5105961;28;20031;-60
2021/07/17 02:07:55;;;;;;;0.13;0.13;;;18.60;56.90;;;;;;5105178;28;20050;-60
2021/07/17 02:10:26;;;;;;;5.80;0.68;;;18.70;59.00;;;;;;5106200;28;20032;-58
2021/07/17 02:13:17;;;;;;;1.55;0.32;;;18.70;57.50;;;;;;5105145;28;20072;-58
2021/07/17 02:15:47;;;;;;;1.73;0.30;;;18.70;57.00;;;;;;5106064;28;20035;-60
2021/07/17 02:18:16;;;;;;;0.98;0.30;;;18.70;58.30;;;;;;5094088;28;20564;-60
2021/07/17 02:20:44;;;;;;;1.08;0.50;;;18.70;58.40;;;;;;5094623;28;20023;-59
2021/07/17 02:23:11;;;;;;;1.98;0.30;;;18.80;57.20;;;;;;5096267;28;20117;-53
2021/07/17 02:25:39;;;;;;;1.42;0.35;;;18.80;57.00;;;;;;5093698;28;20020;-56
2021/07/17 02:28:08;;;;;;;2.58;0.32;;;18.80;58.00;;;;;;5093682;28;20089;-59
2021/07/17 02:30:35;;;;;;;1.75;0.40;;;18.80;58.20;;;;;;5093545;28;20155;-60
2021/07/17 02:33:03;;;;;;;1.30;0.40;;;18.80;56.80;;;;;;5093070;28;21223;-60
2021/07/17 02:35:30;;;;;;;6.90;0.28;;;18.90;56.90;;;;;;5095398;28;20023;-58
2021/07/17 02:37:58;;;;;;;7.63;0.85;;;19.00;57.00;;;;;;5095194;28;20116;-58
2021/07/17 02:40:25;;;;;;;3.92;0.40;;;19.00;56.60;;;;;;5093126;28;20051;-57
2021/07/17 02:42:52;;;;;;;1.15;0.30;;;19.00;55.90;;;;;;5095294;28;20217;-62
2021/07/17 02:45:20;;;;;;;2.55;0.30;;;19.00;55.60;;;;;;5095240;28;20028;-61
2021/07/17 02:47:47;;;;;;;2.22;0.40;;;19.00;56.10;;;;;;5091822;28;20066;-55
2021/07/17 02:50:15;;;;;;;1.05;0.28;;;19.10;55.80;;;;;;5091168;28;20558;-59
2021/07/17 02:52:43;;;;;;;1.02;0.30;;;19.10;55.60;;;;;;5095214;28;20114;-57
2021/07/17 02:55:11;;;;;;;1.50;0.30;;;19.20;56.10;;;;;;5093046;28;20105;-59
2021/07/17 02:57:38;;;;;;;1.13;0.35;;;19.20;56.70;;;;;;5091811;28;20028;-58
2021/07/17 03:00:08;;;;;;;1.27;0.30;;;19.30;56.50;;;;;;5089618;28;20135;-58
2021/07/17 03:02:35;;;;;;;0.70;0.40;;;19.30;55.80;;;;;;5093346;28;20047;-58
2021/07/17 03:05:03;;;;;;;2.78;0.32;;;19.30;55.90;;;;;;5090773;28;20024;-60
2021/07/17 03:07:31;;;;;;;4.45;0.40;;;19.30;56.50;;;;;;5096402;28;20485;-61
2021/07/17 03:09:58;;;;;;;4.40;0.30;;;19.20;56.70;;;;;;5093476;28;20125;-62
2021/07/17 03:12:25;;;;;;;0.98;0.25;;;19.30;56.00;;;;;;5086856;28;20158;-64
2021/07/17 03:14:53;;;;;;;1.48;0.30;;;19.20;54.70;;;;;;5084194;28;20119;-60
2021/07/17 03:17:20;;;;;;;1.90;0.50;;;19.20;55.60;;;;;;5084565;28;20786;-61
2021/07/17 03:19:48;;;;;;;2.78;0.40;;;19.20;55.50;;;;;;5084491;28;20709;-60
2021/07/17 03:22:16;;;;;;;2.78;0.35;;;19.20;55.20;;;;;;5084472;28;20024;-59
2021/07/17 03:24:43;;;;;;;0.77;0.30;;;19.10;56.60;;;;;;5083275;28;20085;-59
2021/07/17 03:27:11;;;;;;;1.50;0.10;;;19.20;56.30;;;;;;5065815;28;20111;-60
2021/07/17 03:29:38;;;;;;;3.97;0.32;;;19.30;55.70;;;;;;5062178;28;20023;-57
2021/07/17 03:32:06;;;;;;;0.55;0.17;;;19.20;55.50;;;;;;5091885;28;20380;-60
2021/07/17 03:34:33;;;;;;;1.05;0.28;;;19.20;55.90;;;;;;5093694;28;20596;-63
2021/07/17 03:37:00;;;;;;;0.47;0.30;;;19.30;54.50;;;;;;5091526;28;20132;-59
2021/07/17 03:39:28;;;;;;;1.23;0.40;;;19.30;53.80;;;;;;5076675;28;20105;-60
2021/07/17 03:41:55;;;;;;;0.43;0.20;;;19.40;54.20;;;;;;5092340;28;20047;-56
2021/07/17 03:44:26;;;;;;;2.25;0.25;;;19.40;55.00;;;;;;5085303;28;20478;-57
2021/07/17 03:46:54;;;;;;;1.63;0.22;;;19.40;55.20;;;;;;5090808;28;20040;-60
2021/07/17 03:49:21;;;;;;;1.60;0.22;;;19.40;54.70;;;;;;5092895;28;20027;-60
2021/07/17 03:51:49;;;;;;;0.60;0.10;;;19.50;55.10;;;;;;5096450;28;20118;-59
2021/07/17 03:54:16;;;;;;;2.15;0.40;;;19.40;54.70;;;;;;5094277;28;20031;-58
2021/07/17 03:56:48;;;;;;;0.85;0.20;;;19.40;55.10;;;;;;5096373;28;20032;-58
2021/07/17 03:59:15;;;;;;;1.42;0.28;;;19.50;54.30;;;;;;5097445;28;20455;-60
2021/07/17 04:01:42;;;;;;;1.95;0.43;;;19.60;54.70;;;;;;5094512;28;20032;-58
2021/07/17 04:04:13;;;;;;;1.13;0.10;;;19.50;55.30;;;;;;5092490;28;20431;-58
2021/07/17 04:06:41;;;;;;;4.88;0.30;;;19.50;56.30;;;;;;5096811;28;20032;-56
2021/07/17 04:09:09;;;;;;;5.50;0.40;;;19.50;55.20;;;;;;5093822;28;20031;-60
2021/07/17 04:11:36;;;;;;;1.65;0.45;;;19.60;55.80;;;;;;5091952;28;20488;-55
2021/07/17 04:14:04;;;;;;;3.70;0.38;;;19.50;54.70;;;;;;5090970;28;20035;-58
2021/07/17 04:16:31;;;;;;;0.65;0.40;;;19.60;55.30;;;;;;5088214;28;20465;-59
2021/07/17 04:18:58;;;;;;;3.40;0.30;;;19.60;54.60;;;;;;5093345;28;20035;-59
2021/07/17 04:21:26;;;;;;;0.35;0.22;;;19.60;55.40;;;;;;5093706;28;20062;-60
2021/07/17 04:23:53;;;;;;;1.10;0.40;;;19.60;55.10;;;;;;5089504;28;21041;-55
2021/07/17 04:26:21;;;;;;;0.22;0.15;;;19.60;54.10;;;;;;5073617;28;20028;-60
2021/07/17 04:28:48;;;;;;;0.22;0.20;;;19.70;54.20;;;;;;5095694;28;20048;-62
2021/07/17 04:31:15;;;;;;;1.98;0.30;;;19.60;54.90;;;;;;5097838;28;20142;-58
2021/07/17 04:33:43;;;;;;;0.57;0.10;;;19.50;55.10;;;;;;5075047;28;20081;-61
2021/07/17 04:36:11;;;;;;;0.40;0.20;;;19.50;55.90;;;;;;5099039;28;20020;-55
2021/07/17 04:38:39;;;;;;;1.00;0.22;;;19.40;55.90;;;;;;5096786;28;20089;-51
2021/07/17 04:41:07;;;;;;;1.08;0.60;;;19.40;56.70;;;;;;5096367;28;20034;-61
2021/07/17 04:43:34;;;;;;;0.10;0.10;;;19.40;55.10;;;;;;5077784;28;20032;-60
2021/07/17 04:46:02;;;;;;;0.80;0.30;;;19.40;54.40;;;;;;5108136;28;20441;-58
2021/07/17 04:48:29;;;;;;;0.57;0.20;;;19.50;55.80;;;;;;5106910;28;20038;-58
2021/07/17 04:50:57;;;;;;;0.57;0.35;;;19.40;56.70;;;;;;5106216;28;20031;-57
2021/07/17 04:53:24;;;;;;;0.60;0.17;;;19.30;56.00;;;;;;5107735;28;20027;-59
2021/07/17 04:55:51;;;;;;;0.43;0.28;;;19.30;56.00;;;;;;5108390;28;20073;-59
2021/07/17 04:58:19;;;;;;;0.30;0.20;;;19.30;55.10;;;;;;5090183;28;20035;-59
2021/07/17 05:00:47;;;;;;;0.75;0.25;;;19.30;55.90;;;;;;5108792;28;20059;-56
2021/07/17 05:03:14;;;;;;;0.30;0.20;;;19.30;56.70;;;;;;5107974;28;20032;-59
2021/07/17 05:05:45;;;;;;;0.50;0.17;;;19.30;54.80;;;;;;5107349;28;20055;-59
2021/07/17 05:08:12;;;;;;;1.20;0.38;;;19.30;56.00;;;;;;5088578;28;20106;-57
2021/07/17 05:10:40;;;;;;;0.93;0.22;;;19.30;54.50;;;;;;5088044;28;20084;-56
2021/07/17 05:13:15;;;;;;;0.68;0.20;;;19.30;54.80;;;;;;5106531;28;20050;-61
2021/07/17 05:15:43;;;;;;;0.55;0.10;;;19.30;55.50;;;;;;5107745;28;20478;-60
2021/07/17 05:18:13;;;;;;;2.42;0.22;;;19.40;55.60;;;;;;5107058;28;20454;-59
2021/07/17 05:20:42;;;;;;;0.00;0.00;;;19.20;53.70;;;;;;5107174;28;20028;-57
2021/07/17 05:23:11;;;;;;;0.28;0.15;;;19.10;54.50;;;;;;5107362;28;20020;-57
2021/07/17 05:25:39;;;;;;;0.20;0.20;;;19.00;54.60;;;;;;5107561;28;20023;-58
2021/07/17 05:28:06;;;;;;;1.13;0.10;;;18.90;54.60;;;;;;5106839;28;20051;-58
2021/07/17 05:30:34;;;;;;;0.30;0.28;;;19.00;56.40;;;;;;5089017;28;20038;-56
2021/07/17 05:33:01;;;;;;;0.80;0.30;;;19.10;55.70;;;;;;5107566;28;20028;-56
2021/07/17 05:35:30;;;;;;;0.82;0.20;;;19.10;55.80;;;;;;5107243;28;20024;-59
2021/07/17 05:37:58;;;;;;;2.05;0.30;;;19.10;55.20;;;;;;5107036;28;20076;-57
2021/07/17 05:40:25;;;;;;;0.98;0.20;;;19.20;55.60;;;;;;5106800;28;20031;-58
2021/07/17 05:42:52;;;;;;;0.30;0.30;;;19.20;54.70;;;;;;5106749;28;20347;-57
2021/07/17 05:45:20;;;;;;;2.17;0.40;;;19.20;53.70;;;;;;5107281;28;20469;-57
2021/07/17 05:47:50;;;;;;;0.10;0.10;;;19.10;53.40;;;;;;5106022;28;20032;-58
2021/07/17 05:50:21;;;;;;;0.40;0.10;;;18.90;54.60;;;;;;5072300;28;20043;-58
2021/07/17 05:52:49;;;;;;;2.25;0.30;;;18.70;55.50;;;;;;5097794;28;20031;-58
2021/07/17 05:55:16;;;;;;;0.80;0.20;;;18.40;54.80;;;;;;5070942;28;20020;-59
2021/07/17 05:57:45;;;;;;;1.17;0.10;;;18.30;55.40;;;;;;5093734;28;20031;-57
2021/07/17 06:00:19;;;;;;;0.73;0.20;;;18.10;56.20;;;;;;5078062;28;21604;-58
2021/07/17 06:02:50;;;;;;;1.27;0.30;;;17.90;57.00;;;;;;5096966;28;20071;-60
2021/07/17 06:05:19;;;;;;;0.55;0.38;;;17.70;54.90;;;;;;5091222;28;20034;-60
2021/07/17 06:07:46;;;;;;;1.40;0.40;;;17.70;57.90;;;;;;5093024;28;20561;-61
2021/07/17 06:10:14;;;;;;;0.22;0.20;;;17.60;58.30;;;;;;5095636;28;20042;-60
2021/07/17 06:12:41;;;;;;;0.70;0.70;;;17.50;59.10;;;;;;5094795;28;20102;-58
2021/07/17 06:15:09;;;;;;;1.60;1.50;;;17.40;58.90;;;;;;5079858;28;20020;-59
2021/07/17 06:17:36;;;;;;;3.35;2.88;;;17.40;59.00;;;;;;5094100;28;20051;-56
2021/07/17 06:20:05;;;;;;;4.07;3.17;;;17.30;58.90;;;;;;5094605;28;20030;-60
2021/07/17 06:22:32;;;;;;;10.50;3.35;;;17.20;59.30;;;;;;5096363;28;20458;-60
2021/07/17 06:25:01;;;;;;;4.00;3.45;;;17.20;59.40;;;;;;5096334;28;20031;-60
2021/07/17 06:27:28;;;;;;;5.22;4.43;;;17.10;59.60;;;;;;5093889;28;20035;-58
2021/07/17 06:29:55;;;;;;;4.00;3.70;;;17.00;59.40;;;;;;5094623;28;20040;-60
2021/07/17 06:32:24;;;;;;;4.47;4.05;;;17.00;59.60;;;;;;5094053;28;20550;-58
2021/07/17 06:34:52;;;;;;;4.80;4.40;;;16.90;59.70;;;;;;5100005;28;20027;-59
2021/07/17 06:37:19;;;;;;;6.22;4.82;;;16.90;59.80;;;;;;5091688;28;20024;-59
2021/07/17 06:39:46;;;;;;;7.25;6.30;;;16.90;59.70;;;;;;5092467;28;20387;-58
2021/07/17 06:42:14;;;;;;;9.57;7.63;;;16.80;60.10;;;;;;5074301;28;20489;-60
2021/07/17 06:44:41;;;;;;;10.02;7.60;;;16.70;60.60;;;;;;5102639;28;20482;-62
2021/07/17 06:47:09;;;;;;;8.27;7.53;;;16.70;60.50;;;;;;5103156;28;20031;-56
2021/07/17 06:49:36;;;;;;;11.35;10.25;;;16.70;60.50;;;;;;5100595;28;20032;-58
2021/07/17 06:52:04;;;;;;;14.55;13.15;;;16.60;60.30;;;;;;5097413;28;20028;-62
2021/07/17 06:54:32;;;;;;;12.98;11.68;;;16.60;60.50;;;;;;5101425;28;20024;-62
2021/07/17 06:57:00;;;;;;;12.57;11.38;;;16.50;60.60;;;;;;5094964;28;20035;-59
2021/07/17 06:59:27;;;;;;;15.88;14.38;;;16.50;60.30;;;;;;5091404;28;20031;-61
2021/07/17 07:01:54;;;;;;;16.38;14.88;;;16.50;61.00;;;;;;5076256;28;20443;-59
2021/07/17 07:04:21;;;;;;;15.90;14.30;;;16.50;61.00;;;;;;5089258;28;20035;-60
2021/07/17 07:06:49;;;;;;;12.27;10.63;;;16.50;60.60;;;;;;5097496;28;20063;-59
2021/07/17 07:09:16;;;;;;;11.23;10.23;;;16.40;60.70;;;;;;5095534;28;20070;-60
2021/07/17 07:11:43;;;;;;;12.40;10.35;;;16.40;60.90;;;;;;5087180;28;20035;-58
2021/07/17 07:14:11;;;;;;;10.63;9.63;;;16.40;61.20;;;;;;5093919;28;20089;-60
2021/07/17 07:16:38;;;;;;;9.25;8.40;;;16.30;61.30;;;;;;5092441;28;20076;-52
2021/07/17 07:19:05;;;;;;;12.13;10.98;;;16.30;61.40;;;;;;5096945;28;20054;-57
2021/07/17 07:21:33;;;;;;;10.55;9.50;;;16.30;61.70;;;;;;5090851;28;21055;-59
2021/07/17 07:24:00;;;;;;;8.98;7.35;;;16.30;61.70;;;;;;5099374;28;20032;-59
2021/07/17 07:26:28;;;;;;;8.73;7.82;;;16.30;61.60;;;;;;5092921;28;20043;-61
2021/07/17 07:28:57;;;;;;;8.98;8.15;;;16.20;61.50;;;;;;5075226;28;20174;-62
2021/07/17 07:31:25;;;;;;;8.57;7.78;;;16.20;62.20;;;;;;5089829;28;20043;-59
2021/07/17 07:33:53;;;;;;;8.68;7.82;;;16.20;62.10;;;;;;5098918;28;20058;-60
2021/07/17 07:36:21;;;;;;;7.82;6.55;;;16.20;62.30;;;;;;5091445;28;20778;-60
2021/07/17 07:38:51;;;;;;;7.30;6.47;;;16.20;62.30;;;;;;5095871;28;20504;-57
2021/07/17 07:41:19;;;;;;;6.85;6.25;;;16.20;62.10;;;;;;5090278;28;20027;-59
2021/07/17 07:43:46;;;;;;;6.53;5.90;;;16.20;62.30;;;;;;5094576;28;20112;-56
2021/07/17 07:46:16;;;;;;;7.03;5.90;;;16.20;62.40;;;;;;5091333;28;20106;-60
2021/07/17 07:48:44;;;;;;;6.43;5.82;;;16.20;62.50;;;;;;5094811;28;20482;-57
2021/07/17 07:51:12;;;;;;;9.73;5.68;;;16.20;62.50;;;;;;5089544;28;21369;-61
2021/07/17 07:53:39;;;;;;;5.22;4.72;;;16.10;61.90;;;;;;5092984;28;20070;-60
2021/07/17 07:56:07;;;;;;;5.07;4.57;;;16.10;62.50;;;;;;5096037;28;20451;-72
2021/07/17 07:58:34;;;;;;;7.13;4.40;;;16.10;62.20;;;;;;5094215;28;20359;-60
2021/07/17 08:01:03;;;;;;;5.22;4.70;;;16.10;62.20;;;;;;5092176;28;20032;-59
2021/07/17 08:03:31;;;;;;;4.93;4.22;;;16.10;62.10;;;;;;5092903;28;20028;-59
2021/07/17 08:05:58;;;;;;;4.47;4.07;;;16.00;62.40;;;;;;5102271;28;20031;-59
2021/07/17 08:08:25;;;;;;;6.28;4.00;;;16.00;62.50;;;;;;5104487;28;20362;-61
2021/07/17 08:10:53;;;;;;;4.10;3.70;;;16.00;62.50;;;;;;5107346;28;20032;-58
2021/07/17 08:13:20;;;;;;;3.83;3.53;;;16.00;62.30;;;;;;5090962;28;20035;-61
2021/07/17 08:15:50;;;;;;;3.28;2.85;;;15.90;62.30;;;;;;5109223;28;20051;-58
2021/07/17 08:18:18;;;;;;;3.22;2.92;;;15.90;62.20;;;;;;5108596;28;20498;-60
2021/07/17 08:20:45;;;;;;;3.28;2.50;;;15.90;62.40;;;;;;5108587;28;20046;-60
2021/07/17 08:23:12;;;;;;;2.80;2.60;;;15.90;62.50;;;;;;5109541;28;20516;-59
2021/07/17 08:25:40;;;;;;;3.22;2.38;;;15.80;62.30;;;;;;5108748;28;20540;-58
2021/07/17 08:28:07;;;;;;;2.97;2.63;;;15.80;62.60;;;;;;5108598;28;20488;-60
2021/07/17 08:30:37;;;;;;;2.53;2.33;;;15.80;62.60;;;;;;5108419;28;20035;-60
2021/07/17 08:33:04;;;;;;;4.32;2.55;;;15.80;62.90;;;;;;5105557;28;20027;-61
2021/07/17 08:35:32;;;;;;;3.30;2.60;;;15.80;62.90;;;;;;5108988;28;20482;-59
2021/07/17 08:38:00;;;;;;;3.25;2.60;;;15.70;62.90;;;;;;5108795;28;20031;-59
2021/07/17 08:40:28;;;;;;;3.63;2.03;;;15.70;63.10;;;;;;5108376;28;20028;-58
2021/07/17 08:42:55;;;;;;;4.75;2.13;;;15.70;63.00;;;;;;5107911;28;20415;-61
2021/07/17 08:45:24;;;;;;;2.13;1.90;;;15.70;63.10;;;;;;5108591;28;20111;-60
2021/07/17 08:47:54;;;;;;;3.85;2.47;;;15.60;63.00;;;;;;5108647;28;20629;-61
2021/07/17 08:50:26;;;;;;;8.80;6.10;;;15.60;62.90;;;;;;5105213;28;20084;-58
2021/07/17 08:52:57;;;;;;;29.40;15.98;;;15.60;63.20;;;;;;5091839;28;20193;-60
2021/07/17 08:55:26;;;;;;;46.00;26.45;;;15.60;64.40;;;;;;5092970;28;20021;-61
2021/07/17 08:57:55;;;;;;;58.17;34.33;;;15.60;64.70;;;;;;5098531;28;20122;-60
2021/07/17 09:00:29;;;;;;;56.10;29.98;;;15.60;64.30;;;;;;5092112;28;20120;-59
2021/07/17 09:03:05;;;;;;;46.58;24.85;;;15.50;63.50;;;;;;5091336;28;20367;-59
2021/07/17 09:05:36;;;;;;;59.50;31.48;;;15.50;64.00;;;;;;5095736;28;20023;-63
2021/07/17 09:08:04;;;;;;;57.47;33.67;;;15.60;64.10;;;;;;5097281;28;21426;-58
2021/07/17 09:10:46;;;;;;;66.07;36.25;;;15.50;63.90;;;;;;5096671;28;20629;-62
2021/07/17 09:13:25;;;;;;;;;;;15.60;64.10;;;;;;5094075;28;20024;-57
2021/07/17 09:16:03;;;;;;;65.03;34.65;;;15.60;63.80;;;;;;5094822;28;19911;-58
2021/07/17 09:18:46;;;;;;;63.35;36.88;;;15.60;63.80;;;;;;5095632;28;20671;-58
2021/07/17 09:21:25;;;;;;;62.85;34.45;;;15.60;64.10;;;;;;5093737;28;20106;-58
2021/07/17 09:23:56;;;;;;;60.50;32.15;;;15.50;63.80;;;;;;5083826;28;20067;-58
2021/07/17 09:26:29;;;;;;;57.03;34.63;;;15.50;63.90;;;;;;5090967;28;20161;-60
2021/07/17 09:29:12;;;;;;;57.63;34.15;;;15.50;63.80;;;;;;5094577;28;20059;-57
2021/07/17 09:31:57;;;;;;;60.80;35.35;;;15.60;64.00;;;;;;5096361;28;20039;-61
2021/07/17 09:34:29;;;;;;;53.08;33.08;;;15.60;63.80;;;;;;5094976;28;20073;-62
2021/07/17 09:37:09;;;;;;;60.28;32.25;;;15.60;63.70;;;;;;5095184;28;20032;-61
2021/07/17 09:39:40;;;;;;;55.25;33.45;;;15.60;63.40;;;;;;5094078;28;20039;-58
2021/07/17 09:42:13;;;;;;;55.33;31.95;;;15.50;63.60;;;;;;5076383;28;20039;-59
2021/07/17 09:44:42;;;;;;;56.72;32.17;;;15.50;63.40;;;;;;5089688;28;20413;-63
2021/07/17 09:47:22;;;;;;;53.28;31.08;;;15.60;63.70;;;;;;5100139;28;20147;-61
2021/07/17 09:49:50;;;;;;;55.05;30.92;;;15.50;63.70;;;;;;5095717;28;20032;-62
2021/07/17 09:52:23;;;;;;;56.75;31.30;;;15.50;63.70;;;;;;5096310;28;20600;-62
2021/07/17 09:55:02;;;;;;;53.53;30.45;;;15.50;63.80;;;;;;5094259;28;20481;-63
2021/07/17 09:57:31;;;;;;;52.20;30.80;;;15.50;63.50;;;;;;5098712;28;20032;-63
2021/07/17 10:00:13;;;;;;;50.53;28.33;;;15.50;63.80;;;;;;5099841;28;20023;-61
2021/07/17 10:02:41;;;;;;;46.20;27.40;;;15.50;63.70;;;;;;5102522;28;20382;-61
2021/07/17 10:05:10;;;;;;;52.50;28.75;;;15.50;63.70;;;;;;5097836;28;20035;-59
2021/07/17 10:07:38;;;;;;;47.67;27.02;;;15.50;63.50;;;;;;5102554;28;20024;-63
2021/07/17 10:10:06;;;;;;;55.67;29.20;;;15.50;63.90;;;;;;5084360;28;20073;-60
2021/07/17 10:12:35;;;;;;;49.35;26.88;;;15.40;64.00;;;;;;5108239;28;20023;-59
2021/07/17 10:15:08;;;;;;;52.10;27.88;;;15.40;63.90;;;;;;5107432;28;20575;-60
2021/07/17 10:17:38;;;;;;;46.92;25.98;;;15.40;64.10;;;;;;5106515;28;20032;-58
2021/07/17 10:20:11;;;;;;;43.50;26.98;;;15.40;64.00;;;;;;5106642;28;20039;-61
2021/07/17 10:22:41;;;;;;;44.60;23.80;;;15.40;64.00;;;;;;5105716;28;20088;-59
2021/07/17 10:25:11;;;;;;;38.28;23.92;;;15.30;63.60;;;;;;5106186;28;20096;-60
2021/07/17 10:27:39;;;;;;;42.30;24.35;;;15.30;63.70;;;;;;5105626;28;20458;-56
2021/07/17 10:30:12;;;;;;;44.28;24.55;;;15.30;63.90;;;;;;5106479;28;20040;-57
2021/07/17 10:32:39;;;;;;;37.38;21.48;;;15.30;64.10;;;;;;5096998;28;20196;-58
2021/07/17 10:35:07;;;;;;;40.65;21.90;;;15.30;64.10;;;;;;5088119;28;20042;-57
2021/07/17 10:37:37;;;;;;;37.30;22.38;;;15.30;64.20;;;;;;5106381;28;20028;-56
2021/07/17 10:40:15;;;;;;;41.47;22.35;;;15.30;64.20;;;;;;5106105;28;20035;-56
2021/07/17 10:42:52;;;;;;;36.45;22.98;;;15.20;64.30;;;;;;5106062;28;20035;-59
2021/07/17 10:45:40;;;;;;;37.20;21.35;;;15.20;64.30;;;;;;5106280;28;20080;-61
2021/07/17 10:48:29;;;;;;;36.00;20.88;;;15.20;64.40;;;;;;5106079;28;20115;-57
2021/07/17 10:51:00;;;;;;;33.72;19.83;;;15.20;64.60;;;;;;5105708;28;20110;-60
2021/07/17 10:53:50;;;;;;;28.83;17.05;;;15.10;64.70;;;;;;5105831;28;20042;-57
2021/07/17 10:56:30;;;;;;;31.45;18.23;;;15.10;64.70;;;;;;5105948;28;20047;-58
2021/07/17 10:59:12;;;;;;;31.77;16.88;;;15.10;64.80;;;;;;5105700;28;20133;-58
2021/07/17 11:01:58;;;;;;;30.02;16.52;;;15.10;64.90;;;;;;5105446;28;20035;-58
2021/07/17 11:04:40;;;;;;;26.23;15.18;;;15.10;65.00;;;;;;5105658;28;20023;-59
2021/07/17 11:07:17;;;;;;;25.00;14.73;;;15.10;65.10;;;;;;5105958;28;20028;-57
2021/07/17 11:09:56;;;;;;;24.55;15.75;;;15.10;65.20;;;;;;5105671;28;20040;-56
2021/07/17 11:12:25;;;;;;;22.63;14.27;;;15.10;65.20;;;;;;5105665;28;20513;-58
2021/07/17 11:14:54;;;;;;;24.35;14.70;;;15.10;65.30;;;;;;5105482;28;20020;-58
2021/07/17 11:17:46;;;;;;;24.48;13.35;;;15.00;65.30;;;;;;5105298;28;20497;-55
2021/07/17 11:20:17;;;;;;;22.73;13.55;;;15.00;65.30;;;;;;5105720;28;20073;-58
2021/07/17 11:22:46;;;;;;;24.87;13.40;;;15.00;65.40;;;;;;5105069;28;20034;-57
2021/07/17 11:25:17;;;;;;;18.88;12.57;;;15.00;65.40;;;;;;5105006;28;20034;-56
2021/07/17 11:27:45;;;;;;;22.10;11.55;;;15.00;65.40;;;;;;5105138;28;20051;-55
2021/07/17 11:30:18;;;;;;;19.35;11.32;;;15.00;65.40;;;;;;5105242;28;20087;-59
2021/07/17 11:33:06;;;;;;;15.73;9.98;;;15.00;65.40;;;;;;5104789;28;20497;-59
2021/07/17 11:35:39;;;;;;;19.42;11.23;;;15.00;65.40;;;;;;5104839;28;20129;-57
2021/07/17 11:38:08;;;;;;;16.77;10.27;;;15.00;65.50;;;;;;5105206;28;20032;-55
2021/07/17 11:40:38;;;;;;;18.55;10.27;;;15.00;65.50;;;;;;5104963;28;20027;-58
2021/07/17 11:43:10;;;;;;;17.85;10.63;;;15.00;65.60;;;;;;5105027;28;20078;-59
2021/07/17 11:45:38;;;;;;;22.23;11.50;;;15.00;65.60;;;;;;5103845;28;20032;-56
2021/07/17 11:48:15;;;;;;;19.30;11.93;;;15.00;65.60;;;;;;5104626;28;20556;-59
2021/07/17 11:50:45;;;;;;;15.98;9.73;;;15.00;65.70;;;;;;5104635;28;20071;-58
2021/07/17 11:53:18;;;;;;;14.75;9.60;;;15.00;65.60;;;;;;5104906;28;20028;-59
2021/07/17 11:55:59;;;;;;;15.75;9.05;;;15.00;65.60;;;;;;5104345;28;20059;-56
2021/07/17 11:58:30;;;;;;;16.20;9.13;;;15.00;65.60;;;;;;5105143;28;20054;-56
2021/07/17 12:01:04;;;;;;;12.57;7.45;;;15.00;65.70;;;;;;5086967;28;20031;-55
2021/07/17 12:03:32;;;;;;;14.32;7.72;;;15.00;65.80;;;;;;5105174;28;20065;-59
2021/07/17 12:06:00;;;;;;;12.93;7.97;;;15.00;65.80;;;;;;5104824;28;20072;-59
2021/07/17 12:08:27;;;;;;;11.65;7.32;;;15.00;65.80;;;;;;5104615;28;20431;-58
2021/07/17 12:10:55;;;;;;;13.80;8.05;;;15.00;65.70;;;;;;5085919;28;20131;-57
2021/07/17 12:13:22;;;;;;;11.30;7.00;;;15.00;65.80;;;;;;5104761;28;20111;-58
2021/07/17 12:15:50;;;;;;;11.35;6.43;;;15.00;65.80;;;;;;5104185;28;20031;-57
2021/07/17 12:18:18;;;;;;;8.85;6.05;;;15.00;65.80;;;;;;5104464;28;20028;-54
2021/07/17 12:20:53;;;;;;;10.10;6.07;;;15.00;65.80;;;;;;5104257;28;20085;-58
2021/07/17 12:23:26;;;;;;;9.15;5.63;;;15.00;65.80;;;;;;5104518;28;20512;-58
2021/07/17 12:26:04;;;;;;;10.13;5.93;;;15.00;65.70;;;;;;5104047;28;20039;-59
2021/07/17 12:28:36;;;;;;;9.15;5.55;;;15.00;65.80;;;;;;5104496;28;20043;-58
2021/07/17 12:31:11;;;;;;;10.95;6.03;;;15.00;65.80;;;;;;5104068;28;20955;-58
2021/07/17 12:33:41;;;;;;;9.13;5.23;;;14.90;65.70;;;;;;5104474;28;20556;-58
2021/07/17 12:36:14;;;;;;;9.02;5.40;;;14.90;65.70;;;;;;5104503;28;20080;-60
2021/07/17 12:38:48;;;;;;;8.93;5.60;;;14.90;65.80;;;;;;5104337;28;20042;-59
2021/07/17 12:41:18;;;;;;;9.88;4.60;;;14.90;65.70;;;;;;5104350;28;20072;-58
2021/07/17 12:43:48;;;;;;;8.85;4.70;;;14.90;65.70;;;;;;5104438;28;20130;-58
2021/07/17 12:46:23;;;;;;;9.02;5.32;;;14.90;65.80;;;;;;5103675;28;20124;-61
2021/07/17 12:49:00;;;;;;;6.55;4.53;;;14.90;65.80;;;;;;5097836;28;20498;-59
2021/07/17 12:51:36;;;;;;;7.90;4.32;;;14.90;65.80;;;;;;5084736;28;20645;-56
2021/07/17 12:54:06;;;;;;;6.13;4.57;;;14.90;65.80;;;;;;5084215;28;20043;-59